Terminal Aerodrome Forecast
Issued by NWS

Home | Current Version | Previous Version | Text Only | Print | Product List | Glossary On
Versions: 1 2 3 4 5 6 7 8 9 10 11 12 13
000
FTUS42 KMHX 292343
TAFPGV
TAF
KPGV 292343Z 3000/3024 00000KT P6SM BKN060
     FM300200 VRB03KT P6SM VCTS BKN050CB
     FM300400 VRB03KT 5SM TSRA SCT015CB BKN050
      TEMPO 3004/3007 2SM +TSRA SCT008 OVC015CB
     FM300900 VRB03KT P6SM SCT025 OVC070
     FM301700 27007KT P6SM VCSH BKN100
      AMD LTD TO CLD VIS AND WIND=

USA.gov is the U.S. government's official web portal to all federal, state and local government web resources and services.